Serena, IL (60549)

10:23 AM CDT on August 30, 2015 (GMT -0500)
Weather at Chuck and Pats | | Change Station
CLOSE
Current Station
Personal Weather Station
Location: Serena, IL
Elevation: 645 ft
Nearby Weather Stations

Elev 645 ft 41.51 °N, 88.74 °W | Updated 10 seconds ago

Overcast
Overcast
70.3 °F
Feels Like 70.3 °F
N
2.4
Wind Variable Wind from NE
Gusts 4.0 mph

Today
High -- | Low -- °F
--% Chance of Precip.
Yesterday
High -- | Low -- °F
Precip. -- in
6:19 AM 7:31 PM
Full, 99% visible
Pressure 30.08 in
Visibility 7.0 miles
Clouds Overcast 1100 ft
Dew Point 67 °F
Humidity 88%
Rainfall 0.00 in
Snow Depth Not available.
UV 2 out of 12
Pollen 10.40 out of 12
Air Quality Not available.
Flu Activity Not available.
METAR KC09 301515Z AUTO 08003KT 7SM OVC011 21/19 A3008 RMK AO2 T02050187
Pressure 30.08 in
Visibility 7.0 miles
Clouds Overcast 1100 ft
Dew Point 67 °F
Humidity 88%
Rainfall 0.00 in
Snow Depth Not available.
UV 2 out of 12
Pollen 10.40 out of 12
Air Quality Not available.
Flu Activity Not available.
METAR KC09 301515Z AUTO 08003KT 7SM OVC011 21/19 A3008 RMK AO2 T02050187

10-Day Weather Forecast

×

Almanac

Astronomy

Aug. 30, 2015 Rise Set
Actual Time
Civil Twilight
Nautical Twilight
Astronomical Twilight
Moon
Length of Visible Light
Length of Day
Tomorrow will be .
, % of the Moon is Illuminated

Today's Extremes

State Highs State Lows

Community

WunderPhotos

Upload Photos

1,850,995 photos uploaded!

WunderBlogs® & News

Nearby

Air Quality

  Air Quality AQ Index Pollutant
Not available.

Snow Depth

Station Depth Elevation

Earthquake Activity

City Distance Mag. Time & Date
Minimum magnitude displayed is 2.5.

Coastal Water Temperatures

Place Temperature

Stations

Nearby Weather Stations

Station Location Temp. Windchill Dew Point Humidity Wind Precip. Elev Updated Type